sensor_id;sensor_type;location;lat;lon;timestamp;temperature;humidity
19174;DHT22;9719;49.322;8.536;2024-02-14T00:03:18;4.00;99.90
19174;DHT22;9719;49.322;8.536;2024-02-14T00:08:22;4.20;99.90
19174;DHT22;9719;49.322;8.536;2024-02-14T00:13:24;4.40;99.90
19174;DHT22;9719;49.322;8.536;2024-02-14T00:18:26;4.60;99.90
19174;DHT22;9719;49.322;8.536;2024-02-14T00:23:28;4.60;99.90
19174;DHT22;9719;49.322;8.536;2024-02-14T00:28:31;4.70;99.90
19174;DHT22;9719;49.322;8.536;2024-02-14T00:33:33;4.80;99.90
19174;DHT22;9719;49.322;8.536;2024-02-14T00:38:34;4.90;99.90
19174;DHT22;9719;49.322;8.536;2024-02-14T00:43:37;5.00;99.90
19174;DHT22;9719;49.322;8.536;2024-02-14T00:48:39;5.10;99.90
19174;DHT22;9719;49.322;8.536;2024-02-14T00:53:40;5.20;99.90
19174;DHT22;9719;49.322;8.536;2024-02-14T00:58:43;5.10;99.90
19174;DHT22;9719;49.322;8.536;2024-02-14T01:03:45;5.20;99.90
19174;DHT22;9719;49.322;8.536;2024-02-14T01:08:47;5.20;99.90
19174;DHT22;9719;49.322;8.536;2024-02-14T01:13:50;5.40;99.90
19174;DHT22;9719;49.322;8.536;2024-02-14T01:18:52;5.30;99.90
19174;DHT22;9719;49.322;8.536;2024-02-14T01:23:54;5.40;99.90
19174;DHT22;9719;49.322;8.536;2024-02-14T01:28:57;5.40;99.90
19174;DHT22;9719;49.322;8.536;2024-02-14T01:34:00;5.40;99.90
19174;DHT22;9719;49.322;8.536;2024-02-14T01:39:02;5.50;99.90
19174;DHT22;9719;49.322;8.536;2024-02-14T01:44:05;5.50;99.90
19174;DHT22;9719;49.322;8.536;2024-02-14T01:49:07;5.60;99.90
19174;DHT22;9719;49.322;8.536;2024-02-14T01:54:10;5.50;99.90
19174;DHT22;9719;49.322;8.536;2024-02-14T01:59:14;5.50;99.90
19174;DHT22;9719;49.322;8.536;2024-02-14T02:04:17;5.50;99.90
19174;DHT22;9719;49.322;8.536;2024-02-14T02:09:19;5.50;99.90
19174;DHT22;9719;49.322;8.536;2024-02-14T02:14:22;5.60;99.90
19174;DHT22;9719;49.322;8.536;2024-02-14T02:19:24;5.60;99.90
19174;DHT22;9719;49.322;8.536;2024-02-14T02:24:27;5.60;99.90
19174;DHT22;9719;49.322;8.536;2024-02-14T02:29:28;5.70;99.90
19174;DHT22;9719;49.322;8.536;2024-02-14T02:34:31;5.60;99.90
19174;DHT22;9719;49.322;8.536;2024-02-14T02:39:34;5.60;99.90
19174;DHT22;9719;49.322;8.536;2024-02-14T02:44:38;5.50;99.90
19174;DHT22;9719;49.322;8.536;2024-02-14T02:49:40;5.50;99.90
19174;DHT22;9719;49.322;8.536;2024-02-14T02:54:44;5.50;99.90
19174;DHT22;9719;49.322;8.536;2024-02-14T02:59:47;5.50;99.90
19174;DHT22;9719;49.322;8.536;2024-02-14T03:04:49;5.60;99.90
19174;DHT22;9719;49.322;8.536;2024-02-14T03:09:52;5.60;99.90
19174;DHT22;9719;49.322;8.536;2024-02-14T03:14:54;5.70;99.90
19174;DHT22;9719;49.322;8.536;2024-02-14T03:19:56;5.80;99.90
19174;DHT22;9719;49.322;8.536;2024-02-14T03:24:58;5.80;99.90
19174;DHT22;9719;49.322;8.536;2024-02-14T03:30:00;5.70;99.90
19174;DHT22;9719;49.322;8.536;2024-02-14T03:35:03;5.80;99.90
19174;DHT22;9719;49.322;8.536;2024-02-14T03:40:08;5.90;99.90
19174;DHT22;9719;49.322;8.536;2024-02-14T03:45:10;5.90;99.90
19174;DHT22;9719;49.322;8.536;2024-02-14T03:50:11;5.90;99.90
19174;DHT22;9719;49.322;8.536;2024-02-14T03:55:14;5.90;99.90
19174;DHT22;9719;49.322;8.536;2024-02-14T04:00:18;5.90;99.90
19174;DHT22;9719;49.322;8.536;2024-02-14T04:05:22;6.00;99.90
19174;DHT22;9719;49.322;8.536;2024-02-14T04:10:25;6.10;99.90
19174;DHT22;9719;49.322;8.536;2024-02-14T04:15:27;6.10;99.90
19174;DHT22;9719;49.322;8.536;2024-02-14T04:20:29;6.10;99.90
19174;DHT22;9719;49.322;8.536;2024-02-14T04:25:32;6.20;99.90
19174;DHT22;9719;49.322;8.536;2024-02-14T04:30:34;6.20;99.90
19174;DHT22;9719;49.322;8.536;2024-02-14T04:35:36;6.20;99.90
19174;DHT22;9719;49.322;8.536;2024-02-14T04:40:39;6.30;99.90
19174;DHT22;9719;49.322;8.536;2024-02-14T04:45:41;6.40;99.90
19174;DHT22;9719;49.322;8.536;2024-02-14T04:50:43;6.40;99.90
19174;DHT22;9719;49.322;8.536;2024-02-14T04:55:46;6.40;99.90
19174;DHT22;9719;49.322;8.536;2024-02-14T05:00:47;6.30;99.90
19174;DHT22;9719;49.322;8.536;2024-02-14T05:05:49;6.60;99.90
19174;DHT22;9719;49.322;8.536;2024-02-14T05:10:52;6.40;99.90
19174;DHT22;9719;49.322;8.536;2024-02-14T05:15:54;6.60;99.90
19174;DHT22;9719;49.322;8.536;2024-02-14T05:20:55;6.70;99.90
19174;DHT22;9719;49.322;8.536;2024-02-14T05:26:00;6.60;99.90
19174;DHT22;9719;49.322;8.536;2024-02-14T05:31:02;6.60;99.90
19174;DHT22;9719;49.322;8.536;2024-02-14T05:36:05;6.60;99.90
19174;DHT22;9719;49.322;8.536;2024-02-14T05:41:08;6.70;99.90
19174;DHT22;9719;49.322;8.536;2024-02-14T05:46:11;6.70;99.90
19174;DHT22;9719;49.322;8.536;2024-02-14T05:51:12;6.80;99.90
19174;DHT22;9719;49.322;8.536;2024-02-14T05:56:15;6.70;99.90
19174;DHT22;9719;49.322;8.536;2024-02-14T06:01:17;6.80;99.90
19174;DHT22;9719;49.322;8.536;2024-02-14T06:06:19;6.80;99.90
19174;DHT22;9719;49.322;8.536;2024-02-14T06:11:22;6.70;99.90
19174;DHT22;9719;49.322;8.536;2024-02-14T06:16:23;6.80;99.90
19174;DHT22;9719;49.322;8.536;2024-02-14T06:21:25;6.80;99.90
19174;DHT22;9719;49.322;8.536;2024-02-14T06:26:29;6.80;99.90
19174;DHT22;9719;49.322;8.536;2024-02-14T06:31:30;6.80;99.90
19174;DHT22;9719;49.322;8.536;2024-02-14T06:36:32;6.90;99.90
19174;DHT22;9719;49.322;8.536;2024-02-14T06:41:35;6.90;99.90
19174;DHT22;9719;49.322;8.536;2024-02-14T06:46:37;7.00;99.90
19174;DHT22;9719;49.322;8.536;2024-02-14T06:51:38;7.00;99.90
19174;DHT22;9719;49.322;8.536;2024-02-14T06:56:41;7.10;99.90
19174;DHT22;9719;49.322;8.536;2024-02-14T07:01:43;7.10;99.90
19174;DHT22;9719;49.322;8.536;2024-02-14T07:06:45;7.20;99.90
19174;DHT22;9719;49.322;8.536;2024-02-14T07:11:48;7.40;99.90
19174;DHT22;9719;49.322;8.536;2024-02-14T07:16:51;7.30;99.90
19174;DHT22;9719;49.322;8.536;2024-02-14T07:21:52;7.50;99.90
19174;DHT22;9719;49.322;8.536;2024-02-14T07:26:55;7.60;99.90
19174;DHT22;9719;49.322;8.536;2024-02-14T07:32:01;7.70;99.90
19174;DHT22;9719;49.322;8.536;2024-02-14T07:37:03;7.70;99.90
19174;DHT22;9719;49.322;8.536;2024-02-14T07:42:06;7.90;99.90
19174;DHT22;9719;49.322;8.536;2024-02-14T07:47:08;8.00;99.90
19174;DHT22;9719;49.322;8.536;2024-02-14T07:52:09;8.10;99.90
19174;DHT22;9719;49.322;8.536;2024-02-14T07:57:12;8.20;99.90
19174;DHT22;9719;49.322;8.536;2024-02-14T08:02:14;8.20;99.90
19174;DHT22;9719;49.322;8.536;2024-02-14T08:07:16;8.30;99.90
19174;DHT22;9719;49.322;8.536;2024-02-14T08:12:19;8.20;99.90
19174;DHT22;9719;49.322;8.536;2024-02-14T08:17:21;8.10;99.90
19174;DHT22;9719;49.322;8.536;2024-02-14T08:22:23;8.30;99.90
19174;DHT22;9719;49.322;8.536;2024-02-14T08:27:26;8.40;99.90
19174;DHT22;9719;49.322;8.536;2024-02-14T08:32:28;8.50;99.90
19174;DHT22;9719;49.322;8.536;2024-02-14T08:37:29;8.60;99.90
19174;DHT22;9719;49.322;8.536;2024-02-14T08:42:32;8.70;99.90
19174;DHT22;9719;49.322;8.536;2024-02-14T08:47:34;8.70;99.90
19174;DHT22;9719;49.322;8.536;2024-02-14T08:52:36;8.80;99.90
19174;DHT22;9719;49.322;8.536;2024-02-14T08:57:40;8.80;99.90
19174;DHT22;9719;49.322;8.536;2024-02-14T09:02:42;8.90;99.90
19174;DHT22;9719;49.322;8.536;2024-02-14T09:07:43;9.20;99.90
19174;DHT22;9719;49.322;8.536;2024-02-14T09:12:46;9.30;99.90
19174;DHT22;9719;49.322;8.536;2024-02-14T09:17:48;9.40;99.90
19174;DHT22;9719;49.322;8.536;2024-02-14T09:22:50;9.30;99.90
19174;DHT22;9719;49.322;8.536;2024-02-14T09:27:53;9.60;99.90
19174;DHT22;9719;49.322;8.536;2024-02-14T09:32:54;9.70;99.90
19174;DHT22;9719;49.322;8.536;2024-02-14T09:37:56;9.70;99.90
19174;DHT22;9719;49.322;8.536;2024-02-14T09:43:01;9.80;99.90
19174;DHT22;9719;49.322;8.536;2024-02-14T09:48:05;10.00;99.90
19174;DHT22;9719;49.322;8.536;2024-02-14T09:53:09;9.90;99.90
19174;DHT22;9719;49.322;8.536;2024-02-14T09:58:15;10.00;99.90
19174;DHT22;9719;49.322;8.536;2024-02-14T10:03:17;10.00;99.90
19174;DHT22;9719;49.322;8.536;2024-02-14T10:08:19;10.10;99.90
19174;DHT22;9719;49.322;8.536;2024-02-14T10:13:22;10.20;99.90
19174;DHT22;9719;49.322;8.536;2024-02-14T10:18:24;10.10;99.90
19174;DHT22;9719;49.322;8.536;2024-02-14T10:23:27;10.20;99.90
19174;DHT22;9719;49.322;8.536;2024-02-14T10:28:32;10.20;99.90
19174;DHT22;9719;49.322;8.536;2024-02-14T10:33:35;10.20;99.90
19174;DHT22;9719;49.322;8.536;2024-02-14T10:38:37;10.20;99.90
19174;DHT22;9719;49.322;8.536;2024-02-14T10:43:42;10.30;99.90
19174;DHT22;9719;49.322;8.536;2024-02-14T10:48:45;10.40;99.90
19174;DHT22;9719;49.322;8.536;2024-02-14T10:53:49;10.50;99.90
19174;DHT22;9719;49.322;8.536;2024-02-14T10:58:55;10.50;99.90
19174;DHT22;9719;49.322;8.536;2024-02-14T11:03:58;10.70;99.90
19174;DHT22;9719;49.322;8.536;2024-02-14T11:09:02;10.70;99.90
19174;DHT22;9719;49.322;8.536;2024-02-14T11:14:09;10.70;99.90
19174;DHT22;9719;49.322;8.536;2024-02-14T11:19:12;10.60;99.90
19174;DHT22;9719;49.322;8.536;2024-02-14T11:24:15;10.90;99.90
19174;DHT22;9719;49.322;8.536;2024-02-14T11:29:18;11.20;99.90
19174;DHT22;9719;49.322;8.536;2024-02-14T11:34:20;11.20;99.90
19174;DHT22;9719;49.322;8.536;2024-02-14T11:39:23;11.00;99.90
19174;DHT22;9719;49.322;8.536;2024-02-14T11:44:26;11.10;99.90
19174;DHT22;9719;49.322;8.536;2024-02-14T11:49:28;11.00;99.90
19174;DHT22;9719;49.322;8.536;2024-02-14T11:54:29;11.00;99.90
19174;DHT22;9719;49.322;8.536;2024-02-14T11:59:32;10.90;99.90
19174;DHT22;9719;49.322;8.536;2024-02-14T12:04:34;10.90;99.90
19174;DHT22;9719;49.322;8.536;2024-02-14T12:09:36;11.20;99.90
19174;DHT22;9719;49.322;8.536;2024-02-14T12:14:39;11.10;99.90
19174;DHT22;9719;49.322;8.536;2024-02-14T12:19:41;11.40;99.90
19174;DHT22;9719;49.322;8.536;2024-02-14T12:24:43;11.30;99.90
19174;DHT22;9719;49.322;8.536;2024-02-14T12:29:47;11.30;99.90
19174;DHT22;9719;49.322;8.536;2024-02-14T12:34:48;11.60;99.90
19174;DHT22;9719;49.322;8.536;2024-02-14T12:39:50;11.90;99.90
19174;DHT22;9719;49.322;8.536;2024-02-14T12:44:55;11.70;99.90
19174;DHT22;9719;49.322;8.536;2024-02-14T12:49:57;11.60;99.90
19174;DHT22;9719;49.322;8.536;2024-02-14T12:54:59;11.90;99.90
19174;DHT22;9719;49.322;8.536;2024-02-14T13:00:03;11.90;99.90
19174;DHT22;9719;49.322;8.536;2024-02-14T13:05:07;12.00;99.90
19174;DHT22;9719;49.322;8.536;2024-02-14T13:10:09;12.10;99.90
19174;DHT22;9719;49.322;8.536;2024-02-14T13:15:13;12.00;99.90
19174;DHT22;9719;49.322;8.536;2024-02-14T13:20:14;12.10;99.90
19174;DHT22;9719;49.322;8.536;2024-02-14T13:25:16;12.40;99.90
19174;DHT22;9719;49.322;8.536;2024-02-14T13:30:19;12.70;99.90
19174;DHT22;9719;49.322;8.536;2024-02-14T13:35:22;12.50;99.90
19174;DHT22;9719;49.322;8.536;2024-02-14T13:40:23;12.50;99.90
19174;DHT22;9719;49.322;8.536;2024-02-14T13:45:30;12.50;99.90
19174;DHT22;9719;49.322;8.536;2024-02-14T13:50:40;12.60;99.90
19174;DHT22;9719;49.322;8.536;2024-02-14T13:55:43;12.40;99.90
19174;DHT22;9719;49.322;8.536;2024-02-14T14:00:46;12.40;99.90
19174;DHT22;9719;49.322;8.536;2024-02-14T14:05:47;12.30;99.90
19174;DHT22;9719;49.322;8.536;2024-02-14T14:10:50;12.30;99.90
19174;DHT22;9719;49.322;8.536;2024-02-14T14:15:53;12.40;99.90
19174;DHT22;9719;49.322;8.536;2024-02-14T14:20:55;12.50;99.90
19174;DHT22;9719;49.322;8.536;2024-02-14T14:25:57;12.50;99.90
19174;DHT22;9719;49.322;8.536;2024-02-14T14:31:00;12.60;99.90
19174;DHT22;9719;49.322;8.536;2024-02-14T14:36:03;12.50;99.90
19174;DHT22;9719;49.322;8.536;2024-02-14T14:41:04;12.70;99.90
19174;DHT22;9719;49.322;8.536;2024-02-14T14:46:07;12.50;99.90
19174;DHT22;9719;49.322;8.536;2024-02-14T14:51:09;12.40;99.90
19174;DHT22;9719;49.322;8.536;2024-02-14T14:56:10;12.30;99.90
19174;DHT22;9719;49.322;8.536;2024-02-14T15:01:13;12.20;99.90
19174;DHT22;9719;49.322;8.536;2024-02-14T15:06:15;12.10;99.90
19174;DHT22;9719;49.322;8.536;2024-02-14T15:11:17;12.10;99.90
19174;DHT22;9719;49.322;8.536;2024-02-14T15:16:22;12.00;99.90
19174;DHT22;9719;49.322;8.536;2024-02-14T15:21:24;12.20;99.90
19174;DHT22;9719;49.322;8.536;2024-02-14T15:26:25;12.00;99.90
19174;DHT22;9719;49.322;8.536;2024-02-14T15:31:28;12.20;99.90
19174;DHT22;9719;49.322;8.536;2024-02-14T15:36:47;12.00;99.90
19174;DHT22;9719;49.322;8.536;2024-02-14T15:41:49;12.00;99.90
19174;DHT22;9719;49.322;8.536;2024-02-14T15:46:52;11.80;99.90
19174;DHT22;9719;49.322;8.536;2024-02-14T15:51:54;11.80;99.90
19174;DHT22;9719;49.322;8.536;2024-02-14T15:56:55;11.90;99.90
19174;DHT22;9719;49.322;8.536;2024-02-14T16:01:58;11.80;99.90
19174;DHT22;9719;49.322;8.536;2024-02-14T16:07:00;11.80;99.90
19174;DHT22;9719;49.322;8.536;2024-02-14T16:12:02;11.70;99.90
19174;DHT22;9719;49.322;8.536;2024-02-14T16:17:05;11.70;99.90
19174;DHT22;9719;49.322;8.536;2024-02-14T16:22:07;11.50;99.90
19174;DHT22;9719;49.322;8.536;2024-02-14T16:27:10;11.40;99.90
19174;DHT22;9719;49.322;8.536;2024-02-14T16:32:13;11.50;99.90
19174;DHT22;9719;49.322;8.536;2024-02-14T16:37:14;11.30;99.90
19174;DHT22;9719;49.322;8.536;2024-02-14T16:42:18;11.30;99.90
19174;DHT22;9719;49.322;8.536;2024-02-14T16:47:21;11.30;99.90
19174;DHT22;9719;49.322;8.536;2024-02-14T16:52:22;11.10;99.90
19174;DHT22;9719;49.322;8.536;2024-02-14T16:57:24;11.10;99.90
19174;DHT22;9719;49.322;8.536;2024-02-14T17:02:27;11.10;99.90
19174;DHT22;9719;49.322;8.536;2024-02-14T17:07:28;11.00;99.90
19174;DHT22;9719;49.322;8.536;2024-02-14T17:12:30;11.00;99.90
19174;DHT22;9719;49.322;8.536;2024-02-14T17:17:33;10.90;99.90
19174;DHT22;9719;49.322;8.536;2024-02-14T17:22:35;11.00;99.90
19174;DHT22;9719;49.322;8.536;2024-02-14T17:27:37;11.00;99.90
19174;DHT22;9719;49.322;8.536;2024-02-14T17:32:40;11.00;99.90
19174;DHT22;9719;49.322;8.536;2024-02-14T17:37:46;11.20;99.90
19174;DHT22;9719;49.322;8.536;2024-02-14T17:42:48;11.30;99.90
19174;DHT22;9719;49.322;8.536;2024-02-14T17:47:51;11.30;99.90
19174;DHT22;9719;49.322;8.536;2024-02-14T17:52:52;11.50;99.90
19174;DHT22;9719;49.322;8.536;2024-02-14T17:57:54;11.50;99.90
19174;DHT22;9719;49.322;8.536;2024-02-14T18:02:57;11.60;99.90
19174;DHT22;9719;49.322;8.536;2024-02-14T18:07:59;11.70;99.90
19174;DHT22;9719;49.322;8.536;2024-02-14T18:13:01;11.80;99.90
19174;DHT22;9719;49.322;8.536;2024-02-14T18:18:04;11.70;99.90
19174;DHT22;9719;49.322;8.536;2024-02-14T18:23:06;11.90;99.90
19174;DHT22;9719;49.322;8.536;2024-02-14T18:28:08;11.80;99.90
19174;DHT22;9719;49.322;8.536;2024-02-14T18:33:11;11.80;99.90
19174;DHT22;9719;49.322;8.536;2024-02-14T18:38:13;11.70;99.90
19174;DHT22;9719;49.322;8.536;2024-02-14T18:43:18;11.80;99.90
19174;DHT22;9719;49.322;8.536;2024-02-14T18:48:22;11.80;99.90
19174;DHT22;9719;49.322;8.536;2024-02-14T18:53:23;11.80;99.90
19174;DHT22;9719;49.322;8.536;2024-02-14T18:58:25;11.90;99.90
19174;DHT22;9719;49.322;8.536;2024-02-14T19:03:28;11.80;99.90
19174;DHT22;9719;49.322;8.536;2024-02-14T19:08:30;11.80;99.90
19174;DHT22;9719;49.322;8.536;2024-02-14T19:13:32;11.70;99.90
19174;DHT22;9719;49.322;8.536;2024-02-14T19:18:35;11.70;99.90
19174;DHT22;9719;49.322;8.536;2024-02-14T19:23:36;11.60;99.90
19174;DHT22;9719;49.322;8.536;2024-02-14T19:28:39;11.60;99.90
19174;DHT22;9719;49.322;8.536;2024-02-14T19:33:42;11.50;99.90
19174;DHT22;9719;49.322;8.536;2024-02-14T19:38:45;11.40;99.90
19174;DHT22;9719;49.322;8.536;2024-02-14T19:43:47;11.70;99.90
19174;DHT22;9719;49.322;8.536;2024-02-14T19:48:50;11.40;99.90
19174;DHT22;9719;49.322;8.536;2024-02-14T19:53:53;11.50;99.90
19174;DHT22;9719;49.322;8.536;2024-02-14T19:58:55;11.40;99.90
19174;DHT22;9719;49.322;8.536;2024-02-14T20:03:58;11.30;99.90
19174;DHT22;9719;49.322;8.536;2024-02-14T20:09:01;11.20;99.90
19174;DHT22;9719;49.322;8.536;2024-02-14T20:14:03;11.10;99.90
19174;DHT22;9719;49.322;8.536;2024-02-14T20:19:06;11.20;99.90
19174;DHT22;9719;49.322;8.536;2024-02-14T20:24:08;11.20;99.90
19174;DHT22;9719;49.322;8.536;2024-02-14T20:29:10;11.20;99.90
19174;DHT22;9719;49.322;8.536;2024-02-14T20:34:13;11.00;99.90
19174;DHT22;9719;49.322;8.536;2024-02-14T20:39:15;11.10;99.90
19174;DHT22;9719;49.322;8.536;2024-02-14T20:44:17;11.10;99.90
19174;DHT22;9719;49.322;8.536;2024-02-14T20:49:21;10.90;99.90
19174;DHT22;9719;49.322;8.536;2024-02-14T20:54:23;10.90;99.90
19174;DHT22;9719;49.322;8.536;2024-02-14T20:59:24;10.90;99.90
19174;DHT22;9719;49.322;8.536;2024-02-14T21:04:28;11.10;99.90
19174;DHT22;9719;49.322;8.536;2024-02-14T21:09:30;11.00;99.90
19174;DHT22;9719;49.322;8.536;2024-02-14T21:14:32;11.00;99.90
19174;DHT22;9719;49.322;8.536;2024-02-14T21:19:35;10.80;99.90
19174;DHT22;9719;49.322;8.536;2024-02-14T21:24:37;10.80;99.90
19174;DHT22;9719;49.322;8.536;2024-02-14T21:29:38;10.80;99.90
19174;DHT22;9719;49.322;8.536;2024-02-14T21:34:42;10.70;99.90
19174;DHT22;9719;49.322;8.536;2024-02-14T21:39:43;10.80;99.90
19174;DHT22;9719;49.322;8.536;2024-02-14T21:44:45;10.80;99.90
19174;DHT22;9719;49.322;8.536;2024-02-14T21:49:48;10.60;99.90
19174;DHT22;9719;49.322;8.536;2024-02-14T21:54:49;10.70;99.90
19174;DHT22;9719;49.322;8.536;2024-02-14T21:59:51;10.60;99.90
19174;DHT22;9719;49.322;8.536;2024-02-14T22:04:54;10.70;99.90
19174;DHT22;9719;49.322;8.536;2024-02-14T22:09:56;10.70;99.90
19174;DHT22;9719;49.322;8.536;2024-02-14T22:14:57;10.60;99.90
19174;DHT22;9719;49.322;8.536;2024-02-14T22:20:00;10.60;99.90
19174;DHT22;9719;49.322;8.536;2024-02-14T22:25:03;10.70;99.90
19174;DHT22;9719;49.322;8.536;2024-02-14T22:30:07;10.60;99.90
19174;DHT22;9719;49.322;8.536;2024-02-14T22:35:10;10.60;99.90
19174;DHT22;9719;49.322;8.536;2024-02-14T22:40:13;10.60;99.90
19174;DHT22;9719;49.322;8.536;2024-02-14T22:45:15;10.50;99.90
19174;DHT22;9719;49.322;8.536;2024-02-14T22:50:18;10.50;99.90
19174;DHT22;9719;49.322;8.536;2024-02-14T22:55:20;10.50;99.90
19174;DHT22;9719;49.322;8.536;2024-02-14T23:00:23;10.60;99.90
19174;DHT22;9719;49.322;8.536;2024-02-14T23:05:26;10.50;99.90
19174;DHT22;9719;49.322;8.536;2024-02-14T23:10:28;10.50;99.90
19174;DHT22;9719;49.322;8.536;2024-02-14T23:15:30;10.50;99.90
19174;DHT22;9719;49.322;8.536;2024-02-14T23:20:33;10.50;99.90
19174;DHT22;9719;49.322;8.536;2024-02-14T23:25:37;10.40;99.90
19174;DHT22;9719;49.322;8.536;2024-02-14T23:30:41;10.50;99.90
19174;DHT22;9719;49.322;8.536;2024-02-14T23:35:44;10.50;99.90
19174;DHT22;9719;49.322;8.536;2024-02-14T23:40:46;10.40;99.90
19174;DHT22;9719;49.322;8.536;2024-02-14T23:45:48;10.40;99.90
19174;DHT22;9719;49.322;8.536;2024-02-14T23:50:51;10.40;99.90
19174;DHT22;9719;49.322;8.536;2024-02-14T23:55:53;10.30;99.90
